createdAt,value
2022-11-29T00:00:27.337Z,1015.58
2022-11-29T00:01:27.234Z,1015.57
2022-11-29T00:02:27.387Z,1015.54
2022-11-29T00:03:27.236Z,1015.56
2022-11-29T00:04:27.214Z,1015.54
2022-11-29T00:05:27.218Z,1015.61
2022-11-29T00:06:27.203Z,1015.55
2022-11-29T00:07:27.212Z,1015.55
2022-11-29T00:08:27.188Z,1015.53
2022-11-29T00:09:27.153Z,1015.56
2022-11-29T00:10:27.150Z,1015.55
2022-11-29T00:11:27.180Z,1015.60
2022-11-29T00:12:27.140Z,1015.55
2022-11-29T00:13:27.081Z,1015.58
2022-11-29T00:14:27.228Z,1015.60
2022-11-29T00:15:27.089Z,1015.58
2022-11-29T00:16:27.123Z,1015.56
2022-11-29T00:17:27.053Z,1015.52
2022-11-29T00:18:27.081Z,1015.56
2022-11-29T00:19:27.031Z,1015.54
2022-11-29T00:20:27.001Z,1015.56
2022-11-29T00:21:27.011Z,1015.54
2022-11-29T00:22:27.055Z,1015.55
2022-11-29T00:23:26.975Z,1015.57
2022-11-29T00:24:26.936Z,1015.58
2022-11-29T00:25:26.969Z,1015.60
2022-11-29T00:26:27.053Z,1015.58
2022-11-29T00:27:26.993Z,1015.60
2022-11-29T00:28:26.934Z,1015.61
2022-11-29T00:29:26.895Z,1015.59
2022-11-29T00:30:26.943Z,1015.60
2022-11-29T00:31:26.877Z,1015.61
2022-11-29T00:32:26.857Z,1015.62
2022-11-29T00:33:26.891Z,1015.62
2022-11-29T00:34:26.803Z,1015.58
2022-11-29T00:35:26.837Z,1015.65
2022-11-29T00:36:26.796Z,1015.62
2022-11-29T00:37:26.842Z,1015.64
2022-11-29T00:38:26.811Z,1015.62
2022-11-29T00:39:26.814Z,1015.63
2022-11-29T00:40:26.732Z,1015.63
2022-11-29T00:41:26.741Z,1015.63
2022-11-29T00:42:26.749Z,1015.65
2022-11-29T00:43:26.751Z,1015.64
2022-11-29T00:44:26.714Z,1015.69
2022-11-29T00:45:26.746Z,1015.66
2022-11-29T00:46:26.695Z,1015.63
2022-11-29T00:47:26.663Z,1015.64
2022-11-29T00:48:26.679Z,1015.67
2022-11-29T00:49:26.690Z,1015.61
2022-11-29T00:50:26.598Z,1015.66
2022-11-29T00:51:26.615Z,1015.63
2022-11-29T00:52:26.586Z,1015.63
2022-11-29T00:53:26.591Z,1015.66
2022-11-29T00:54:26.609Z,1015.67
2022-11-29T00:55:26.607Z,1015.69
2022-11-29T00:56:26.540Z,1015.69
2022-11-29T00:57:26.575Z,1015.66
2022-11-29T00:58:26.508Z,1015.68
2022-11-29T00:59:26.509Z,1015.66
2022-11-29T01:00:26.564Z,1015.70
2022-11-29T01:01:26.569Z,1015.70
2022-11-29T01:02:26.510Z,1015.68
2022-11-29T01:03:26.485Z,1015.66
2022-11-29T01:04:26.441Z,1015.70
2022-11-29T01:05:26.437Z,1015.73
2022-11-29T01:06:26.427Z,1015.72
2022-11-29T01:07:26.459Z,1015.73
2022-11-29T01:08:26.369Z,1015.71
2022-11-29T01:09:26.386Z,1015.72
2022-11-29T01:10:26.396Z,1015.74
2022-11-29T01:11:26.441Z,1015.74
2022-11-29T01:12:26.337Z,1015.73
2022-11-29T01:13:26.353Z,1015.73
2022-11-29T01:14:26.298Z,1015.75
2022-11-29T01:15:26.319Z,1015.76
2022-11-29T01:16:26.367Z,1015.72
2022-11-29T01:17:26.318Z,1015.69
2022-11-29T01:18:26.267Z,1015.71
2022-11-29T01:19:26.282Z,1015.73
2022-11-29T01:20:26.221Z,1015.73
2022-11-29T01:21:26.237Z,1015.70
2022-11-29T01:22:26.257Z,1015.74
2022-11-29T01:23:26.218Z,1015.71
2022-11-29T01:24:26.203Z,1015.69
2022-11-29T01:25:26.200Z,1015.73
2022-11-29T01:26:26.137Z,1015.72
2022-11-29T01:27:26.152Z,1015.74
2022-11-29T01:28:26.168Z,1015.72
2022-11-29T01:29:26.124Z,1015.75
2022-11-29T01:30:26.187Z,1015.72
2022-11-29T01:31:26.206Z,1015.76
2022-11-29T01:32:26.079Z,1015.74
2022-11-29T01:33:26.139Z,1015.75
2022-11-29T01:34:26.056Z,1015.71
2022-11-29T01:35:26.192Z,1015.76
2022-11-29T01:36:26.053Z,1015.75
2022-11-29T01:37:26.038Z,1015.77
2022-11-29T01:38:25.991Z,1015.79
2022-11-29T01:39:26.064Z,1015.80
2022-11-29T01:40:25.984Z,1015.81
2022-11-29T01:41:26.023Z,1015.85
2022-11-29T01:42:25.946Z,1015.82
2022-11-29T01:43:25.949Z,1015.82
2022-11-29T01:44:25.984Z,1015.80
2022-11-29T01:45:25.938Z,1015.82
2022-11-29T01:46:25.995Z,1015.83
2022-11-29T01:47:25.995Z,1015.82
2022-11-29T01:48:25.855Z,1015.84
2022-11-29T01:49:25.871Z,1015.81
2022-11-29T01:50:25.868Z,1015.85
2022-11-29T01:51:25.861Z,1015.86
2022-11-29T01:52:25.814Z,1015.81
2022-11-29T01:53:25.854Z,1015.84
2022-11-29T01:54:25.779Z,1015.82
2022-11-29T01:55:25.806Z,1015.81
2022-11-29T01:56:25.776Z,1015.82
2022-11-29T01:57:25.809Z,1015.85
2022-11-29T01:58:25.779Z,1015.83
2022-11-29T01:59:25.768Z,1015.86
2022-11-29T02:00:25.764Z,1015.87
2022-11-29T02:01:25.792Z,1015.86
2022-11-29T02:02:25.732Z,1015.87
2022-11-29T02:03:25.709Z,1015.89
2022-11-29T02:04:25.733Z,1015.89
2022-11-29T02:05:25.669Z,1015.86
2022-11-29T02:06:25.634Z,1015.87
2022-11-29T02:07:25.717Z,1015.91
2022-11-29T02:08:25.600Z,1015.90
2022-11-29T02:09:25.665Z,1015.89
2022-11-29T02:10:25.603Z,1015.93
2022-11-29T02:11:25.594Z,1015.94
2022-11-29T02:12:25.553Z,1015.94
2022-11-29T02:13:25.592Z,1015.90
2022-11-29T02:14:25.518Z,1015.91
2022-11-29T02:15:25.588Z,1016.01
2022-11-29T02:16:25.539Z,1015.93
2022-11-29T02:17:25.516Z,1015.91
2022-11-29T02:18:25.492Z,1015.95
2022-11-29T02:19:25.531Z,1015.93
2022-11-29T02:20:25.477Z,1015.89
2022-11-29T02:21:25.465Z,1015.86
2022-11-29T02:22:25.439Z,1015.92
2022-11-29T02:23:25.430Z,1015.84
2022-11-29T02:24:25.393Z,1015.87
2022-11-29T02:25:25.403Z,1015.86
2022-11-29T02:26:25.421Z,1015.88
2022-11-29T02:27:25.411Z,1015.92
2022-11-29T02:28:25.364Z,1015.87
2022-11-29T02:29:25.367Z,1015.91
2022-11-29T02:30:25.320Z,1015.93
2022-11-29T02:31:25.374Z,1015.90
2022-11-29T02:32:25.300Z,1015.94
2022-11-29T02:33:25.309Z,1015.92
2022-11-29T02:34:25.299Z,1015.95
2022-11-29T02:35:25.285Z,1015.97
2022-11-29T02:36:25.252Z,1015.95
2022-11-29T02:37:25.283Z,1015.94
2022-11-29T02:38:25.215Z,1015.99
2022-11-29T02:39:25.227Z,1015.94
2022-11-29T02:40:25.207Z,1015.94
2022-11-29T02:41:25.198Z,1015.97
2022-11-29T02:42:25.224Z,1015.97
2022-11-29T02:43:25.184Z,1015.99
2022-11-29T02:44:25.149Z,1015.99
2022-11-29T02:45:25.157Z,1015.96
2022-11-29T02:46:25.173Z,1015.95
2022-11-29T02:47:25.128Z,1016.02
2022-11-29T02:48:25.121Z,1016.04
2022-11-29T02:49:25.117Z,1016.03
2022-11-29T02:50:31.082Z,1016.01
2022-11-29T02:51:25.092Z,1016.02
2022-11-29T02:52:25.050Z,1016.04
2022-11-29T02:53:25.097Z,1016.07
2022-11-29T02:54:25.043Z,1016.03
2022-11-29T02:55:25.021Z,1016.07
2022-11-29T02:56:25.029Z,1016.06
2022-11-29T02:57:25.006Z,1016.07
2022-11-29T02:58:24.980Z,1016.07
2022-11-29T02:59:25.190Z,1016.08
2022-11-29T03:00:24.969Z,1016.06
2022-11-29T03:01:25.042Z,1016.05
2022-11-29T03:02:24.952Z,1016.03
2022-11-29T03:03:24.960Z,1016.08
2022-11-29T03:04:24.917Z,1016.05
2022-11-29T03:05:24.903Z,1016.02
2022-11-29T03:06:24.933Z,1016.07
2022-11-29T03:07:24.969Z,1016.08
2022-11-29T03:08:24.905Z,1016.08
2022-11-29T03:09:24.854Z,1016.05
2022-11-29T03:10:24.854Z,1016.10
2022-11-29T03:11:24.840Z,1016.07
2022-11-29T03:12:24.778Z,1016.09
2022-11-29T03:13:24.791Z,1016.12
2022-11-29T03:14:24.869Z,1016.09
2022-11-29T03:15:24.853Z,1016.15
2022-11-29T03:16:24.729Z,1016.18
2022-11-29T03:17:24.739Z,1016.20
2022-11-29T03:18:24.719Z,1016.16
2022-11-29T03:19:24.714Z,1016.25
2022-11-29T03:20:24.672Z,1016.16
2022-11-29T03:21:24.720Z,1016.21
2022-11-29T03:22:24.653Z,1016.18
2022-11-29T03:23:24.689Z,1016.23
2022-11-29T03:24:24.651Z,1016.26
2022-11-29T03:25:24.634Z,1016.21
2022-11-29T03:26:24.636Z,1016.20
2022-11-29T03:27:24.615Z,1016.23
2022-11-29T03:28:24.579Z,1016.19
2022-11-29T03:29:24.599Z,1016.28
2022-11-29T03:30:24.584Z,1016.26
2022-11-29T03:31:24.641Z,1016.21
2022-11-29T03:32:24.545Z,1016.25
2022-11-29T03:33:24.532Z,1016.21
2022-11-29T03:34:24.547Z,1016.25
2022-11-29T03:35:24.516Z,1016.26
2022-11-29T03:36:24.468Z,1016.25
2022-11-29T03:37:24.545Z,1016.23
2022-11-29T03:38:24.444Z,1016.24
2022-11-29T03:39:24.479Z,1016.21
2022-11-29T03:40:24.465Z,1016.23
2022-11-29T03:41:24.459Z,1016.19
2022-11-29T03:42:24.432Z,1016.18
2022-11-29T03:43:24.424Z,1016.19
2022-11-29T03:44:24.510Z,1016.21
2022-11-29T03:45:24.389Z,1016.22
2022-11-29T03:46:24.580Z,1016.25
2022-11-29T03:47:24.337Z,1016.22
2022-11-29T03:48:24.374Z,1016.24
2022-11-29T03:49:24.309Z,1016.32
2022-11-29T03:50:24.346Z,1016.27
2022-11-29T03:51:24.304Z,1016.28
2022-11-29T03:52:24.306Z,1016.26
2022-11-29T03:53:24.387Z,1016.27
2022-11-29T03:54:24.305Z,1016.28
2022-11-29T03:55:24.252Z,1016.26
2022-11-29T03:56:24.245Z,1016.26
2022-11-29T03:57:24.222Z,1016.29
2022-11-29T03:58:24.230Z,1016.31
2022-11-29T03:59:24.212Z,1016.33
2022-11-29T04:00:24.209Z,1016.33
2022-11-29T04:01:24.208Z,1016.33
2022-11-29T04:02:24.227Z,1016.30
2022-11-29T04:03:24.157Z,1016.35
2022-11-29T04:04:24.129Z,1016.33
2022-11-29T04:05:24.129Z,1016.30
2022-11-29T04:06:24.150Z,1016.33
2022-11-29T04:07:24.126Z,1016.30
2022-11-29T04:08:24.083Z,1016.32
2022-11-29T04:09:24.038Z,1016.35
2022-11-29T04:10:24.104Z,1016.36
2022-11-29T04:11:24.018Z,1016.34
2022-11-29T04:12:24.035Z,1016.37
2022-11-29T04:13:23.996Z,1016.34
2022-11-29T04:14:24.003Z,1016.32
2022-11-29T04:15:23.966Z,1016.36
2022-11-29T04:16:24.088Z,1016.34
2022-11-29T04:17:23.953Z,1016.38
2022-11-29T04:18:23.958Z,1016.38
2022-11-29T04:19:23.933Z,1016.34
2022-11-29T04:20:23.932Z,1016.41
2022-11-29T04:21:23.927Z,1016.41
2022-11-29T04:22:23.908Z,1016.46
2022-11-29T04:23:23.896Z,1016.51
2022-11-29T04:24:23.876Z,1016.46
2022-11-29T04:25:23.856Z,1016.41
2022-11-29T04:26:23.864Z,1016.49
2022-11-29T04:27:23.836Z,1016.46
2022-11-29T04:28:23.844Z,1016.50
2022-11-29T04:29:23.821Z,1016.48
2022-11-29T04:30:23.798Z,1016.50
2022-11-29T04:31:23.873Z,1016.45
2022-11-29T04:32:23.851Z,1016.49
2022-11-29T04:33:23.733Z,1016.45
2022-11-29T04:34:23.745Z,1016.50
2022-11-29T04:35:23.728Z,1016.49
2022-11-29T04:36:23.722Z,1016.49
2022-11-29T04:37:23.693Z,1016.52
2022-11-29T04:38:23.728Z,1016.52
2022-11-29T04:39:23.670Z,1016.61
2022-11-29T04:40:23.700Z,1016.55
2022-11-29T04:41:23.640Z,1016.54
2022-11-29T04:42:23.653Z,1016.49
2022-11-29T04:43:23.635Z,1016.51
2022-11-29T04:44:23.651Z,1016.53
2022-11-29T04:45:23.599Z,1016.54
2022-11-29T04:46:23.678Z,1016.55
2022-11-29T04:47:23.587Z,1016.59
2022-11-29T04:48:23.586Z,1016.61
2022-11-29T04:49:23.559Z,1016.60
2022-11-29T04:50:23.553Z,1016.58
2022-11-29T04:51:23.512Z,1016.66
2022-11-29T04:52:23.528Z,1016.64
2022-11-29T04:53:23.494Z,1016.66
2022-11-29T04:54:23.534Z,1016.65
2022-11-29T04:55:30.524Z,1016.72
2022-11-29T04:56:23.491Z,1016.72
2022-11-29T04:57:23.438Z,1016.72
2022-11-29T04:58:23.443Z,1016.73
2022-11-29T04:59:23.437Z,1016.72
2022-11-29T05:00:23.499Z,1016.70
2022-11-29T05:01:23.527Z,1016.71
2022-11-29T05:02:23.441Z,1016.72
2022-11-29T05:03:23.357Z,1016.75
2022-11-29T05:04:23.367Z,1016.80
2022-11-29T05:05:23.398Z,1016.79
2022-11-29T05:06:23.359Z,1016.84
2022-11-29T05:07:23.347Z,1016.86
2022-11-29T05:08:23.345Z,1016.93
2022-11-29T05:09:23.277Z,1016.87
2022-11-29T05:10:23.333Z,1016.94
2022-11-29T05:11:26.687Z,1016.96
2022-11-29T05:12:23.278Z,1016.98
2022-11-29T05:13:23.222Z,1017.00
2022-11-29T05:14:23.254Z,1017.06
2022-11-29T05:15:23.196Z,1017.03
2022-11-29T05:16:23.268Z,1017.07
2022-11-29T05:17:23.186Z,1017.06
2022-11-29T05:18:23.198Z,1017.09
2022-11-29T05:19:23.150Z,1017.12
2022-11-29T05:20:23.196Z,1017.10
2022-11-29T05:21:23.133Z,1017.11
2022-11-29T05:22:23.173Z,1017.15
2022-11-29T05:23:23.109Z,1017.14
2022-11-29T05:24:23.108Z,1017.18
2022-11-29T05:25:23.077Z,1017.24
2022-11-29T05:26:23.128Z,1017.14
2022-11-29T05:27:23.113Z,1017.19
2022-11-29T05:28:23.055Z,1017.17
2022-11-29T05:29:23.035Z,1017.18
2022-11-29T05:30:23.067Z,1017.20
2022-11-29T05:31:23.051Z,1017.19
2022-11-29T05:32:23.019Z,1017.21
2022-11-29T05:33:23.012Z,1017.22
2022-11-29T05:34:23.004Z,1017.27
2022-11-29T05:35:22.954Z,1017.27
2022-11-29T05:36:22.975Z,1017.27
2022-11-29T05:37:22.921Z,1017.29
2022-11-29T05:38:22.962Z,1017.32
2022-11-29T05:39:22.934Z,1017.29
2022-11-29T05:40:22.952Z,1017.27
2022-11-29T05:41:22.869Z,1017.25
2022-11-29T05:42:22.891Z,1017.28
2022-11-29T05:43:22.915Z,1017.27
2022-11-29T05:44:22.901Z,1017.27
2022-11-29T05:45:22.831Z,1017.27
2022-11-29T05:46:22.876Z,1017.30
2022-11-29T05:47:25.719Z,1017.29
2022-11-29T05:48:22.806Z,1017.20
2022-11-29T05:49:22.804Z,1017.29
2022-11-29T05:50:22.820Z,1017.26
2022-11-29T05:51:22.747Z,1017.25
2022-11-29T05:52:22.868Z,1017.23
2022-11-29T05:53:22.736Z,1017.28
2022-11-29T05:54:22.730Z,1017.34
2022-11-29T05:55:22.724Z,1017.32
2022-11-29T05:56:22.843Z,1017.34
2022-11-29T05:57:22.710Z,1017.32
2022-11-29T05:58:28.631Z,1017.35
2022-11-29T05:59:22.655Z,1017.37
2022-11-29T06:00:22.810Z,1017.33
2022-11-29T06:01:22.655Z,1017.39
2022-11-29T06:02:22.736Z,1017.39
2022-11-29T06:03:22.605Z,1017.38
2022-11-29T06:04:22.598Z,1017.36
2022-11-29T06:05:22.665Z,1017.44
2022-11-29T06:06:22.603Z,1017.44
2022-11-29T06:07:22.605Z,1017.43
2022-11-29T06:08:22.561Z,1017.46
2022-11-29T06:09:22.640Z,1017.48
2022-11-29T06:10:22.539Z,1017.49
2022-11-29T06:11:22.529Z,1017.55
2022-11-29T06:12:22.547Z,1017.50
2022-11-29T06:13:22.465Z,1017.54
2022-11-29T06:14:22.469Z,1017.52
2022-11-29T06:15:22.429Z,1017.59
2022-11-29T06:16:22.526Z,1017.57
2022-11-29T06:17:22.438Z,1017.58
2022-11-29T06:18:22.427Z,1017.59
2022-11-29T06:19:22.386Z,1017.61
2022-11-29T06:20:22.433Z,1017.62
2022-11-29T06:21:22.365Z,1017.67
2022-11-29T06:22:22.400Z,1017.70
2022-11-29T06:23:22.349Z,1017.70
2022-11-29T06:24:25.995Z,1017.70
2022-11-29T06:25:22.328Z,1017.71
2022-11-29T06:26:22.306Z,1017.70
2022-11-29T06:27:22.292Z,1017.71
2022-11-29T06:28:22.315Z,1017.73
2022-11-29T06:29:22.276Z,1017.73
2022-11-29T06:30:22.260Z,1017.72
2022-11-29T06:31:22.258Z,1017.74
2022-11-29T06:32:22.200Z,1017.74
2022-11-29T06:33:22.237Z,1017.73
2022-11-29T06:34:26.246Z,1017.75
2022-11-29T06:35:22.151Z,1017.77
2022-11-29T06:36:22.145Z,1017.78
2022-11-29T06:37:22.131Z,1017.74
2022-11-29T06:38:22.104Z,1017.76
2022-11-29T06:39:22.119Z,1017.76
2022-11-29T06:40:22.096Z,1017.74
2022-11-29T06:41:22.061Z,1017.69
2022-11-29T06:42:22.134Z,1017.75
2022-11-29T06:43:22.025Z,1017.76
2022-11-29T06:44:22.087Z,1017.70
2022-11-29T06:45:22.001Z,1017.76
2022-11-29T06:46:22.045Z,1017.79
2022-11-29T06:47:21.971Z,1017.76
2022-11-29T06:48:22.096Z,1017.80
2022-11-29T06:49:21.941Z,1017.77
2022-11-29T06:50:21.992Z,1017.78
2022-11-29T06:51:21.932Z,1017.82
2022-11-29T06:52:22.017Z,1017.83
2022-11-29T06:53:21.889Z,1017.89
2022-11-29T06:54:21.897Z,1017.87
2022-11-29T06:55:21.932Z,1017.91
2022-11-29T06:56:21.891Z,1017.90
2022-11-29T06:57:21.839Z,1017.93
2022-11-29T06:58:21.858Z,1017.99
2022-11-29T06:59:21.819Z,1017.97
2022-11-29T07:00:21.824Z,1017.93
2022-11-29T07:01:22.027Z,1017.97
2022-11-29T07:02:21.843Z,1018.01
2022-11-29T07:03:21.863Z,1018.03
2022-11-29T07:04:21.789Z,1018.03
2022-11-29T07:05:21.738Z,1018.04
2022-11-29T07:06:21.905Z,1018.03
2022-11-29T07:07:21.781Z,1018.04
2022-11-29T07:08:21.739Z,1018.07
2022-11-29T07:09:21.693Z,1018.04
2022-11-29T07:10:21.745Z,1018.07
2022-11-29T07:11:21.671Z,1018.08
2022-11-29T07:12:21.787Z,1018.10
2022-11-29T07:13:21.665Z,1018.07
2022-11-29T07:14:21.696Z,1018.08
2022-11-29T07:15:21.606Z,1018.06
2022-11-29T07:16:21.735Z,1018.07
2022-11-29T07:17:21.624Z,1018.08
2022-11-29T07:18:21.594Z,1018.08
2022-11-29T07:19:21.561Z,1018.08
2022-11-29T07:20:21.581Z,1018.10
2022-11-29T07:21:21.548Z,1018.12
2022-11-29T07:22:21.538Z,1018.04
2022-11-29T07:23:21.557Z,1018.08
2022-11-29T07:24:21.519Z,1018.09
2022-11-29T07:25:21.498Z,1018.16
2022-11-29T07:26:21.506Z,1018.12
2022-11-29T07:27:21.466Z,1018.14
2022-11-29T07:28:21.511Z,1018.15
2022-11-29T07:29:21.426Z,1018.15
2022-11-29T07:30:21.595Z,1018.19
2022-11-29T07:31:21.470Z,1018.15
2022-11-29T07:32:21.418Z,1018.20
2022-11-29T07:33:21.387Z,1018.23
2022-11-29T07:34:21.411Z,1018.25
2022-11-29T07:35:21.499Z,1018.21
2022-11-29T07:36:21.368Z,1018.25
2022-11-29T07:37:21.323Z,1018.21
2022-11-29T07:38:21.352Z,1018.23
2022-11-29T07:39:21.341Z,1018.25
2022-11-29T07:40:21.336Z,1018.24
2022-11-29T07:41:21.279Z,1018.27
2022-11-29T07:42:21.308Z,1018.22
2022-11-29T07:43:21.255Z,1018.24
2022-11-29T07:44:21.275Z,1018.23
2022-11-29T07:45:21.283Z,1018.21
2022-11-29T07:46:21.298Z,1018.25
2022-11-29T07:47:21.198Z,1018.23
2022-11-29T07:48:21.284Z,1018.24
2022-11-29T07:49:21.198Z,1018.26
2022-11-29T07:50:21.252Z,1018.25
2022-11-29T07:51:21.154Z,1018.24
2022-11-29T07:52:21.161Z,1018.24
2022-11-29T07:53:21.123Z,1018.24
2022-11-29T07:54:21.989Z,1018.26
2022-11-29T07:55:21.097Z,1018.28
2022-11-29T07:56:21.119Z,1018.29
2022-11-29T07:57:21.091Z,1018.36
2022-11-29T07:58:21.143Z,1018.34
2022-11-29T07:59:21.066Z,1018.35
2022-11-29T08:00:21.035Z,1018.34
2022-11-29T08:01:21.183Z,1018.35
2022-11-29T08:02:21.099Z,1018.43
2022-11-29T08:03:21.047Z,1018.40
2022-11-29T08:04:21.064Z,1018.37
2022-11-29T08:05:21.017Z,1018.40
2022-11-29T08:06:20.980Z,1018.46
2022-11-29T08:07:21.030Z,1018.48
2022-11-29T08:08:20.946Z,1018.44
2022-11-29T08:09:21.000Z,1018.43
2022-11-29T08:10:20.912Z,1018.49
2022-11-29T08:11:20.947Z,1018.47
2022-11-29T08:12:20.975Z,1018.47
2022-11-29T08:13:20.900Z,1018.51
2022-11-29T08:14:20.943Z,1018.53
2022-11-29T08:15:20.875Z,1018.51
2022-11-29T08:16:20.897Z,1018.56
2022-11-29T08:17:20.879Z,1018.57
2022-11-29T08:18:20.829Z,1018.57
2022-11-29T08:19:20.807Z,1018.57
2022-11-29T08:20:20.783Z,1018.57
2022-11-29T08:21:20.793Z,1018.60
2022-11-29T08:22:20.872Z,1018.62
2022-11-29T08:23:20.806Z,1018.59
2022-11-29T08:24:20.730Z,1018.62
2022-11-29T08:25:20.844Z,1018.65
2022-11-29T08:26:20.847Z,1018.62
2022-11-29T08:27:20.706Z,1018.65
2022-11-29T08:28:20.824Z,1018.61
2022-11-29T08:29:20.710Z,1018.61
2022-11-29T08:30:20.731Z,1018.64
2022-11-29T08:31:20.688Z,1018.66
2022-11-29T08:32:20.634Z,1018.66
2022-11-29T08:33:20.631Z,1018.62
2022-11-29T08:34:20.643Z,1018.63
2022-11-29T08:35:20.637Z,1018.64
2022-11-29T08:36:20.717Z,1018.65
2022-11-29T08:37:20.584Z,1018.67
2022-11-29T08:38:20.705Z,1018.71
2022-11-29T08:39:20.567Z,1018.67
2022-11-29T08:40:20.654Z,1018.67
2022-11-29T08:41:20.542Z,1018.71
2022-11-29T08:42:20.493Z,1018.72
2022-11-29T08:43:20.509Z,1018.71
2022-11-29T08:44:20.512Z,1018.74
2022-11-29T08:45:20.529Z,1018.71
2022-11-29T08:46:20.493Z,1018.72
2022-11-29T08:47:20.452Z,1018.74
2022-11-29T08:48:20.499Z,1018.77
2022-11-29T08:49:20.427Z,1018.74
2022-11-29T08:50:20.402Z,1018.74
2022-11-29T08:51:20.493Z,1018.76
2022-11-29T08:52:20.376Z,1018.75
2022-11-29T08:53:20.445Z,1018.77
2022-11-29T08:54:20.346Z,1018.72
2022-11-29T08:55:20.416Z,1018.75
2022-11-29T08:58:20.321Z,1018.73
2022-11-29T08:59:20.342Z,1018.76
2022-11-29T09:00:20.280Z,1018.77
2022-11-29T09:01:20.404Z,1018.81
2022-11-29T09:02:20.288Z,1018.79
2022-11-29T09:03:20.317Z,1018.79
2022-11-29T09:04:20.215Z,1018.73
2022-11-29T09:05:20.239Z,1018.75
2022-11-29T09:06:20.190Z,1018.76
2022-11-29T09:07:20.290Z,1018.76
2022-11-29T09:08:20.169Z,1018.79
2022-11-29T09:09:20.178Z,1018.74
2022-11-29T09:10:20.136Z,1018.78
2022-11-29T09:11:20.219Z,1018.78
2022-11-29T09:12:20.137Z,1018.81
2022-11-29T09:13:20.139Z,1018.84
2022-11-29T09:14:20.089Z,1018.80
2022-11-29T09:15:20.161Z,1018.84
2022-11-29T09:16:20.156Z,1018.86
2022-11-29T09:17:20.070Z,1018.83
2022-11-29T09:18:20.068Z,1018.83
2022-11-29T09:19:20.055Z,1018.87
2022-11-29T09:20:20.008Z,1018.87
2022-11-29T09:21:20.017Z,1018.87
2022-11-29T09:22:20.016Z,1018.88
2022-11-29T09:23:20.043Z,1018.90
2022-11-29T09:24:19.949Z,1018.93
2022-11-29T09:25:19.993Z,1018.91
2022-11-29T09:26:19.938Z,1018.92
2022-11-29T09:27:19.944Z,1018.91
2022-11-29T09:28:19.920Z,1018.97
2022-11-29T09:29:19.942Z,1018.96
2022-11-29T09:30:23.673Z,1018.98
2022-11-29T09:31:19.899Z,1018.96
2022-11-29T09:32:19.889Z,1018.96
2022-11-29T09:33:19.861Z,1018.96
2022-11-29T09:34:19.863Z,1018.99
2022-11-29T09:35:19.864Z,1019.07
2022-11-29T09:36:23.698Z,1019.00
2022-11-29T09:37:19.816Z,1019.01
2022-11-29T09:38:19.910Z,1019.00
2022-11-29T09:39:19.776Z,1019.06
2022-11-29T09:40:19.841Z,1019.06
2022-11-29T09:41:19.756Z,1019.07
2022-11-29T09:42:19.751Z,1019.05
2022-11-29T09:43:19.736Z,1019.09
2022-11-29T09:44:19.750Z,1019.11
2022-11-29T09:45:19.739Z,1019.10
2022-11-29T09:46:19.761Z,1019.09
2022-11-29T09:47:19.682Z,1019.10
2022-11-29T09:48:19.642Z,1019.08
2022-11-29T09:49:19.672Z,1019.08
2022-11-29T09:50:19.690Z,1019.10
2022-11-29T09:51:19.661Z,1019.16
2022-11-29T09:52:19.610Z,1019.16
2022-11-29T09:53:19.601Z,1019.15
2022-11-29T09:54:19.569Z,1019.17
2022-11-29T09:55:19.582Z,1019.16
2022-11-29T09:56:19.596Z,1019.17
2022-11-29T09:57:19.560Z,1019.18
2022-11-29T09:58:19.522Z,1019.17
2022-11-29T09:59:19.612Z,1019.23
2022-11-29T10:00:19.571Z,1019.23
2022-11-29T10:01:19.542Z,1019.18
2022-11-29T10:02:21.702Z,1019.18
2022-11-29T10:03:19.468Z,1019.16
2022-11-29T10:04:19.438Z,1019.13
2022-11-29T10:05:19.544Z,1019.14
2022-11-29T10:06:19.423Z,1019.18
2022-11-29T10:07:19.493Z,1019.18
2022-11-29T10:08:19.409Z,1019.22
2022-11-29T10:09:19.389Z,1019.24
2022-11-29T10:10:19.443Z,1019.23
2022-11-29T10:11:19.371Z,1019.24
2022-11-29T10:12:19.348Z,1019.21
2022-11-29T10:13:19.369Z,1019.26
2022-11-29T10:14:19.344Z,1019.27
2022-11-29T10:15:19.310Z,1019.24
2022-11-29T10:16:19.335Z,1019.24
2022-11-29T10:17:19.297Z,1019.24
2022-11-29T10:18:19.281Z,1019.21
2022-11-29T10:19:19.261Z,1019.20
2022-11-29T10:20:19.221Z,1019.23
2022-11-29T10:21:19.254Z,1019.25
2022-11-29T10:22:19.199Z,1019.24
2022-11-29T10:23:19.211Z,1019.24
2022-11-29T10:24:19.217Z,1019.27
2022-11-29T10:25:19.252Z,1019.21
2022-11-29T10:26:19.151Z,1019.21
2022-11-29T10:27:19.154Z,1019.24
2022-11-29T10:28:19.206Z,1019.20
2022-11-29T10:29:19.164Z,1019.22
2022-11-29T10:30:19.088Z,1019.24
2022-11-29T10:31:19.185Z,1019.19
2022-11-29T10:32:19.063Z,1019.19
2022-11-29T10:33:19.089Z,1019.24
2022-11-29T10:34:19.140Z,1019.22
2022-11-29T10:35:19.088Z,1019.20
2022-11-29T10:36:19.026Z,1019.23
2022-11-29T10:37:19.024Z,1019.18
2022-11-29T10:38:34.244Z,1019.14
2022-11-29T10:39:19.002Z,1019.17
2022-11-29T10:40:19.000Z,1019.14
2022-11-29T10:41:19.038Z,1019.17
2022-11-29T10:42:18.944Z,1019.16
2022-11-29T10:43:18.950Z,1019.15
2022-11-29T10:44:18.908Z,1019.17
2022-11-29T10:45:18.933Z,1019.19
2022-11-29T10:46:18.972Z,1019.21
2022-11-29T10:47:18.899Z,1019.16
2022-11-29T10:48:18.913Z,1019.13
2022-11-29T10:49:18.868Z,1019.16
2022-11-29T10:50:18.836Z,1019.15
2022-11-29T10:51:18.941Z,1019.13
2022-11-29T10:52:18.804Z,1019.12
2022-11-29T10:53:18.813Z,1019.14
2022-11-29T10:54:18.790Z,1019.17
2022-11-29T10:55:18.868Z,1019.19
2022-11-29T10:56:18.758Z,1019.20
2022-11-29T10:57:18.792Z,1019.19
2022-11-29T10:58:21.975Z,1019.22
2022-11-29T10:59:18.758Z,1019.20
2022-11-29T11:00:18.705Z,1019.18
2022-11-29T11:01:18.871Z,1019.23
2022-11-29T11:02:18.723Z,1019.24
2022-11-29T11:03:18.743Z,1019.22
2022-11-29T11:04:18.652Z,1019.26
2022-11-29T11:05:19.021Z,1019.27
2022-11-29T11:06:18.718Z,1019.27
2022-11-29T11:07:18.655Z,1019.24
2022-11-29T11:08:18.629Z,1019.22
2022-11-29T11:09:18.696Z,1019.25
2022-11-29T11:10:18.572Z,1019.23
2022-11-29T11:11:18.578Z,1019.20
2022-11-29T11:12:18.645Z,1019.24
2022-11-29T11:13:18.597Z,1019.19
2022-11-29T11:14:18.537Z,1019.17
2022-11-29T11:15:18.531Z,1019.19
2022-11-29T11:16:18.615Z,1019.21
2022-11-29T11:17:18.514Z,1019.18
2022-11-29T11:18:18.498Z,1019.19
2022-11-29T11:19:18.495Z,1019.14
2022-11-29T11:20:18.440Z,1019.16
2022-11-29T11:21:18.471Z,1019.15
2022-11-29T11:22:18.410Z,1019.18
2022-11-29T11:23:18.432Z,1019.15
2022-11-29T11:24:18.424Z,1019.14
2022-11-29T11:25:18.402Z,1019.10
2022-11-29T11:26:18.358Z,1019.15
2022-11-29T11:27:18.452Z,1019.09
2022-11-29T11:28:18.339Z,1019.12
2022-11-29T11:29:18.346Z,1019.13
2022-11-29T11:30:18.345Z,1019.17
2022-11-29T11:31:18.403Z,1019.10
2022-11-29T11:32:18.300Z,1019.13
2022-11-29T11:33:18.289Z,1019.05
2022-11-29T11:34:18.280Z,1019.07
2022-11-29T11:35:18.708Z,1019.10
2022-11-29T11:36:18.225Z,1019.10
2022-11-29T11:37:18.324Z,1019.11
2022-11-29T11:38:18.303Z,1019.13
2022-11-29T11:39:18.216Z,1019.10
2022-11-29T11:40:18.237Z,1019.12
2022-11-29T11:41:18.233Z,1019.10
2022-11-29T11:42:18.214Z,1019.16
2022-11-29T11:43:18.174Z,1019.15
2022-11-29T11:44:45.674Z,1019.15
2022-11-29T11:45:18.140Z,1019.15
2022-11-29T11:46:18.417Z,1019.19
2022-11-29T11:47:18.148Z,1019.16
2022-11-29T11:48:18.081Z,1019.17
2022-11-29T11:49:18.089Z,1019.13
2022-11-29T11:50:18.105Z,1019.13
2022-11-29T11:51:18.063Z,1019.17
2022-11-29T11:52:18.064Z,1019.12
2022-11-29T11:53:18.068Z,1019.14
2022-11-29T11:54:17.992Z,1019.15
2022-11-29T11:55:18.083Z,1019.15
2022-11-29T11:56:17.966Z,1019.19
2022-11-29T11:57:18.063Z,1019.20
2022-11-29T11:58:17.937Z,1019.24
2022-11-29T11:59:17.946Z,1019.21
2022-11-29T12:00:34.436Z,1019.20
2022-11-29T12:01:17.954Z,1019.24
2022-11-29T12:02:17.920Z,1019.19
2022-11-29T12:03:18.102Z,1019.24
2022-11-29T12:04:17.872Z,1019.26
2022-11-29T12:05:17.896Z,1019.27
2022-11-29T12:06:17.846Z,1019.23
2022-11-29T12:07:17.938Z,1019.22